Time;durP1;ratioP1;P1;durP2;ratioP2;P2;SDS_P1;SDS_P2;PMS_P1;PMS_P2;Temp;Humidity;BMP_temperature;BMP_pressure;BME280_temperature;BME280_humidity;BME280_pressure;Samples;Min_cycle;Max_cycle;Signal;HPM_P1;HPM_P2
2024/03/02 00:01:04;;;;;;;16.15;6.32;;;;;;;12.28;83.82;99754.75;5089214;28;20732;-67
2024/03/02 00:03:30;;;;;;;18.42;6.47;;;;;;;12.21;84.35;99753.97;5076339;28;20028;-67
2024/03/02 00:05:55;;;;;;;21.98;7.40;;;;;;;12.14;84.86;99752.03;5084188;28;20414;-67
2024/03/02 00:08:27;;;;;;;16.98;6.43;;;;;;;12.05;85.38;99759.00;5070080;28;20031;-67
2024/03/02 00:10:58;;;;;;;14.63;6.32;;;;;;;12.09;85.46;99751.66;5087796;28;20032;-67
2024/03/02 00:13:24;;;;;;;11.77;5.40;;;;;;;12.14;84.78;99753.97;5085300;28;20035;-68
2024/03/02 00:15:55;;;;;;;18.75;6.68;;;;;;;12.14;85.08;99751.28;5083064;28;20020;-67
2024/03/02 00:18:30;;;;;;;13.13;5.70;;;;;;;12.15;85.48;99750.13;5087919;28;20060;-67
2024/03/02 00:20:57;;;;;;;15.70;6.40;;;;;;;12.09;85.43;99746.28;5098793;27;20360;-67
2024/03/02 00:23:24;;;;;;;13.50;6.20;;;;;;;12.13;85.05;99742.41;5082635;28;20497;-67
2024/03/02 00:25:55;;;;;;;13.30;5.55;;;;;;;12.22;84.49;99745.50;5067647;28;20040;-67
2024/03/02 00:28:25;;;;;;;20.08;7.15;;;;;;;12.18;84.83;99738.53;5086049;28;20412;-67
2024/03/02 00:31:11;;;;;;;14.50;6.07;;;;;;;12.15;85.15;99737.41;5059295;28;21122;-67
2024/03/02 00:33:41;;;;;;;18.05;7.25;;;;;;;12.00;85.88;99729.72;5085382;28;20058;-67
2024/03/02 00:36:07;;;;;;;23.63;5.97;;;;;;;12.01;86.21;99723.91;5083885;28;20020;-67
2024/03/02 00:38:34;;;;;;;20.67;6.28;;;;;;;12.06;86.02;99725.47;5071736;28;20016;-67
2024/03/02 00:41:15;;;;;;;15.27;6.15;;;;;;;12.07;85.90;99732.41;5083761;28;20036;-67
2024/03/02 00:44:01;;;;;;;17.60;6.30;;;;;;;12.10;86.00;99718.88;5084012;28;20489;-67
2024/03/02 00:46:33;;;;;;;18.27;6.22;;;;;;;12.10;86.22;99727.00;5079440;28;20043;-67
2024/03/02 00:49:01;;;;;;;15.68;6.32;;;;;;;12.02;86.64;99720.06;5084526;28;20284;-67
2024/03/02 00:51:29;;;;;;;16.75;7.25;;;;;;;12.04;86.68;99725.09;5085131;28;20421;-67
2024/03/02 00:53:57;;;;;;;22.33;6.63;;;;;;;11.98;86.92;99723.94;5080875;28;20032;-67
2024/03/02 00:56:26;;;;;;;18.05;6.85;;;;;;;12.06;87.52;99725.47;5094340;28;20020;-67
2024/03/02 00:58:53;;;;;;;16.42;7.03;;;;;;;12.04;86.79;99717.75;5111587;27;20036;-67
2024/03/02 01:01:19;;;;;;;25.45;7.25;;;;;;;11.85;88.28;99720.84;5085705;28;20056;-67
2024/03/02 01:03:45;;;;;;;17.48;7.15;;;;;;;11.87;88.69;99729.31;5087785;28;20044;-67
2024/03/02 01:06:11;;;;;;;16.17;6.93;;;;;;;11.91;88.67;99732.00;5083412;28;20039;-67
2024/03/02 01:08:36;;;;;;;15.07;6.45;;;;;;;11.91;88.39;99724.69;5084552;28;20134;-67
2024/03/02 01:11:03;;;;;;;19.63;6.85;;;;;;;11.91;88.09;99721.22;5092818;28;20499;-68
2024/03/02 01:13:29;;;;;;;19.85;7.40;;;;;;;11.88;87.73;99725.47;5094791;28;20027;-68
2024/03/02 01:15:54;;;;;;;18.48;7.03;;;;;;;11.75;88.68;99724.28;5070852;28;20020;-67
2024/03/02 01:18:20;;;;;;;18.27;6.90;;;;;;;11.85;89.14;99720.84;5096767;28;20058;-67
2024/03/02 01:20:45;;;;;;;21.08;6.55;;;;;;;11.97;87.50;99723.16;5092963;28;20707;-67
2024/03/02 01:23:11;;;;;;;17.42;7.00;;;;;;;11.82;88.64;99720.84;5094445;28;20034;-67
2024/03/02 01:25:36;;;;;;;24.73;8.30;;;;;;;11.76;89.10;99718.53;5088062;28;20023;-67
2024/03/02 01:28:03;;;;;;;16.70;6.47;;;;;;;11.74;89.93;99711.97;5094118;28;20036;-67
2024/03/02 01:30:28;;;;;;;21.08;7.22;;;;;;;11.79;89.57;99708.88;5091285;28;20028;-67
2024/03/02 01:32:53;;;;;;;20.25;7.30;;;;;;;11.79;89.04;99711.59;5093687;28;20051;-67
2024/03/02 01:35:19;;;;;;;23.63;7.18;;;;;;;11.79;89.41;99716.97;5120435;27;20011;-67
2024/03/02 01:37:44;;;;;;;13.68;6.25;;;;;;;11.73;89.51;99705.81;5090744;28;20553;-67
2024/03/02 01:40:10;;;;;;;10.80;5.30;;;;;;;11.68;88.92;99708.91;5088423;28;20568;-67
2024/03/02 01:42:37;;;;;;;20.98;6.53;;;;;;;11.73;89.74;99700.41;5084588;28;20040;-67
2024/03/02 01:45:05;;;;;;;19.38;7.75;;;;;;;11.75;89.59;99700.81;5089747;28;20409;-67
2024/03/02 01:47:30;;;;;;;21.88;6.50;;;;;;;11.79;88.88;99706.97;5091889;28;20036;-67
2024/03/02 01:49:56;;;;;;;23.25;7.35;;;;;;;11.74;89.71;99709.28;5089273;28;20023;-67
2024/03/02 01:52:21;;;;;;;17.42;6.78;;;;;;;11.66;89.95;99705.03;5088953;28;20074;-67
2024/03/02 01:54:47;;;;;;;17.25;7.13;;;;;;;11.68;90.22;99700.81;5088112;28;20091;-67
2024/03/02 01:57:12;;;;;;;17.17;6.50;;;;;;;11.62;90.58;99702.31;5088835;28;20496;-67
2024/03/02 01:59:38;;;;;;;16.50;6.07;;;;;;;11.73;89.96;99710.44;5074442;28;20381;-67
2024/03/02 02:02:03;;;;;;;24.33;6.80;;;;;;;11.73;89.71;99710.44;5086915;28;20060;-67
2024/03/02 02:04:29;;;;;;;18.95;7.25;;;;;;;11.72;89.59;99706.19;5090449;28;20093;-67
2024/03/02 02:06:54;;;;;;;15.43;5.85;;;;;;;11.69;89.25;99706.97;5086346;28;20062;-67
2024/03/02 02:09:20;;;;;;;17.30;6.50;;;;;;;11.81;89.16;99714.66;5090661;28;20028;-67
2024/03/02 02:11:45;;;;;;;21.13;7.78;;;;;;;11.78;89.06;99713.53;5083048;28;20081;-67
2024/03/02 02:14:11;;;;;;;20.13;7.25;;;;;;;11.77;89.11;99705.81;5090115;28;20052;-67
2024/03/02 02:16:36;;;;;;;18.88;6.72;;;;;;;11.76;89.14;99698.88;5087096;28;20055;-67
2024/03/02 02:19:02;;;;;;;16.50;7.03;;;;;;;11.76;88.90;99706.97;5093510;28;20031;-68
2024/03/02 02:21:28;;;;;;;19.30;7.25;;;;;;;11.75;89.24;99700.03;5085111;28;20028;-67
2024/03/02 02:23:53;;;;;;;18.80;6.78;;;;;;;11.79;88.64;99696.19;5089620;28;20047;-67
2024/03/02 02:26:19;;;;;;;15.15;6.30;;;;;;;11.71;88.91;99700.03;5087642;28;20047;-67
2024/03/02 02:28:48;;;;;;;18.42;7.63;;;;;;;11.67;89.46;99695.81;5084965;28;20028;-67
2024/03/02 02:31:14;;;;;;;13.93;6.45;;;;;;;11.66;89.57;99702.34;5086704;28;20016;-67
2024/03/02 02:33:40;;;;;;;14.20;5.90;;;;;;;11.64;89.78;99688.44;5090590;28;20055;-67
2024/03/02 02:36:06;;;;;;;22.15;7.25;;;;;;;11.61;88.99;99694.63;5089397;28;20055;-67
2024/03/02 02:38:33;;;;;;;20.40;7.38;;;;;;;11.71;88.90;99691.94;5087028;28;20054;-67
2024/03/02 02:40:58;;;;;;;18.67;7.13;;;;;;;11.66;89.13;99688.84;5084037;28;20773;-67
2024/03/02 02:43:24;;;;;;;16.85;6.93;;;;;;;11.59;89.50;99691.53;5088177;28;20151;-67
2024/03/02 02:45:49;;;;;;;15.82;7.07;;;;;;;11.63;89.43;99693.06;5089914;28;20085;-67
2024/03/02 02:48:14;;;;;;;20.35;6.97;;;;;;;11.69;89.01;99685.41;5087542;28;20102;-67
2024/03/02 02:50:41;;;;;;;22.63;6.45;;;;;;;11.58;89.73;99684.59;5073320;28;20028;-67
2024/03/02 02:53:09;;;;;;;14.95;5.78;;;;;;;11.58;89.67;99688.06;5074012;28;20637;-67
2024/03/02 02:55:37;;;;;;;21.23;8.25;;;;;;;11.56;89.71;99681.50;5089432;28;20031;-67
2024/03/02 02:58:03;;;;;;;17.73;7.10;;;;;;;11.53;89.85;99679.59;5103907;27;20150;-67
2024/03/02 03:00:28;;;;;;;19.85;6.95;;;;;;;11.56;89.30;99681.50;5069222;28;20110;-67
2024/03/02 03:02:54;;;;;;;17.35;7.03;;;;;;;11.54;89.64;99679.19;5075296;28;20035;-67
2024/03/02 03:05:20;;;;;;;18.00;6.53;;;;;;;11.53;89.42;99674.97;5089621;28;20056;-67
2024/03/02 03:07:46;;;;;;;15.75;5.88;;;;;;;11.42;89.57;99671.47;5089838;28;20035;-67
2024/03/02 03:10:11;;;;;;;16.92;6.82;;;;;;;11.43;89.83;99670.34;5090559;28;20039;-67
2024/03/02 03:12:37;;;;;;;18.88;7.03;;;;;;;11.52;89.56;99665.31;5086771;28;20094;-67
2024/03/02 03:15:04;;;;;;;17.42;7.13;;;;;;;11.47;89.80;99673.03;5093146;28;20089;-67
2024/03/02 03:17:30;;;;;;;19.42;7.07;;;;;;;11.43;88.94;99674.97;5090704;28;20484;-67
2024/03/02 03:19:55;;;;;;;15.45;6.60;;;;;;;11.38;90.05;99668.00;5093073;28;20035;-67
2024/03/02 03:22:20;;;;;;;16.02;6.72;;;;;;;11.49;88.68;99676.91;5093546;28;20019;-67
2024/03/02 03:24:46;;;;;;;16.17;7.32;;;;;;;11.39;89.12;99672.25;5090661;28;20027;-67
2024/03/02 03:27:11;;;;;;;19.17;7.53;;;;;;;11.45;89.25;99659.16;5088792;28;21338;-67
2024/03/02 03:29:37;;;;;;;19.70;6.95;;;;;;;11.39;89.71;99677.66;5091441;28;20559;-67
2024/03/02 03:32:04;;;;;;;17.23;7.75;;;;;;;11.37;89.32;99669.19;5091116;28;20024;-67
2024/03/02 03:34:32;;;;;;;17.15;6.45;;;;;;;11.35;90.22;99676.88;5121154;27;20024;-67
2024/03/02 03:36:58;;;;;;;14.32;7.15;;;;;;;11.31;89.32;99668.00;5074209;28;20035;-67
2024/03/02 03:39:23;;;;;;;14.93;6.47;;;;;;;11.32;89.43;99669.56;5086522;28;20578;-68
2024/03/02 03:41:49;;;;;;;19.08;6.78;;;;;;;11.43;88.95;99672.25;5070811;28;20031;-67
2024/03/02 03:44:14;;;;;;;20.00;7.93;;;;;;;11.41;88.90;99672.66;5091218;28;20036;-67
2024/03/02 03:46:39;;;;;;;22.90;8.52;;;;;;;11.41;89.32;99674.56;5085925;28;20023;-67
2024/03/02 03:49:05;;;;;;;15.73;6.80;;;;;;;11.42;89.21;99676.13;5084164;28;20060;-67
2024/03/02 03:51:30;;;;;;;22.85;7.47;;;;;;;11.34;89.21;99671.88;5087479;28;20044;-67
2024/03/02 03:53:56;;;;;;;17.38;7.75;;;;;;;11.37;89.04;99682.66;5069443;28;20181;-67
2024/03/02 03:56:21;;;;;;;16.20;7.25;;;;;;;11.38;89.05;99669.97;5068989;28;20020;-67
2024/03/02 03:58:47;;;;;;;22.33;7.70;;;;;;;11.35;88.85;99682.28;5087589;28;20024;-67
2024/03/02 04:01:12;;;;;;;16.80;6.28;;;;;;;11.39;88.69;99674.97;5090180;28;20027;-67
2024/03/02 04:03:38;;;;;;;17.75;7.35;;;;;;;11.41;88.51;99671.88;5089288;28;20679;-67
2024/03/02 04:06:04;;;;;;;15.90;6.18;;;;;;;11.39;88.51;99672.25;5094244;28;20063;-67
2024/03/02 04:08:29;;;;;;;17.92;6.07;;;;;;;11.39;88.58;99666.09;5087992;28;20124;-67
2024/03/02 04:10:55;;;;;;;19.70;7.15;;;;;;;11.38;89.03;99669.97;5084708;28;20036;-67
2024/03/02 04:13:20;;;;;;;17.75;6.18;;;;;;;11.36;87.88;99658.78;5092704;28;20172;-67
2024/03/02 04:15:45;;;;;;;19.90;6.45;;;;;;;11.30;89.10;99663.00;5089505;28;20481;-67
2024/03/02 04:18:11;;;;;;;20.38;6.78;;;;;;;11.45;87.39;99656.47;5088381;28;20035;-67
2024/03/02 04:20:37;;;;;;;16.52;6.75;;;;;;;11.32;88.25;99652.63;5069654;28;20036;-67
2024/03/02 04:23:03;;;;;;;18.48;5.95;;;;;;;11.36;87.79;99650.69;5091145;28;20028;-67
2024/03/02 04:25:28;;;;;;;14.98;6.82;;;;;;;11.41;88.27;99650.31;5074081;28;20038;-67
2024/03/02 04:27:53;;;;;;;13.68;6.03;;;;;;;11.36;88.36;99648.00;5092496;28;20100;-67
2024/03/02 04:30:19;;;;;;;15.55;6.28;;;;;;;11.30;88.45;99649.53;5090246;28;20027;-67
2024/03/02 04:32:48;;;;;;;14.70;6.32;;;;;;;11.27;89.01;99650.28;5093774;28;20047;-67
2024/03/02 04:35:14;;;;;;;25.48;7.03;;;;;;;11.36;88.17;99650.69;5084881;28;20027;-67
2024/03/02 04:37:39;;;;;;;15.13;6.15;;;;;;;11.34;88.03;99655.69;5088044;28;20031;-67
2024/03/02 04:40:08;;;;;;;12.85;5.88;;;;;;;11.44;87.98;99652.25;5088011;28;20048;-67
2024/03/02 04:42:34;;;;;;;14.88;6.78;;;;;;;11.36;87.19;99659.53;5088485;28;20036;-67
2024/03/02 04:44:59;;;;;;;14.95;6.30;;;;;;;11.45;87.18;99661.88;5086678;28;20027;-68
2024/03/02 04:47:25;;;;;;;20.17;6.40;;;;;;;11.39;87.26;99660.69;5090562;28;20432;-68
2024/03/02 04:49:50;;;;;;;17.50;6.50;;;;;;;11.35;88.04;99652.63;5089721;28;20423;-67
2024/03/02 04:52:16;;;;;;;14.32;6.13;;;;;;;11.36;87.56;99661.47;5095202;28;20034;-66
2024/03/02 04:57:26;;;;;;;9.90;4.93;;;;;;;11.32;87.62;99660.72;5088980;28;20028;-66
2024/03/02 04:59:51;;;;;;;12.13;5.45;;;;;;;11.32;86.45;99660.72;5091259;28;20089;-66
2024/03/02 05:02:16;;;;;;;11.35;6.05;;;;;;;11.31;87.27;99670.72;5089992;28;20051;-66
2024/03/02 05:04:42;;;;;;;13.43;5.57;;;;;;;11.52;85.69;99672.63;5070895;28;20028;-67
2024/03/02 05:07:07;;;;;;;12.52;5.07;;;;;;;11.34;85.26;99677.25;5094837;28;20459;-66
2024/03/02 05:09:33;;;;;;;15.30;5.80;;;;;;;11.26;86.11;99681.88;5096062;28;20035;-66
2024/03/02 05:14:42;;;;;;;14.18;5.10;;;;;;;11.28;85.31;99681.50;5085786;28;20031;-66
2024/03/02 05:17:08;;;;;;;15.10;6.28;;;;;;;11.34;85.86;99678.00;5084866;28;20028;-66
2024/03/02 05:19:33;;;;;;;17.30;5.88;;;;;;;11.29;86.24;99680.31;5067038;28;20028;-66
2024/03/02 05:21:59;;;;;;;9.80;5.50;;;;;;;11.26;86.50;99675.72;5069459;28;20028;-66
2024/03/02 05:24:27;;;;;;;16.38;6.03;;;;;;;11.24;86.45;99684.19;5084204;28;20032;-66
2024/03/02 05:26:53;;;;;;;16.50;6.75;;;;;;;11.26;86.49;99673.00;5096973;28;20028;-66
2024/03/02 05:29:19;;;;;;;12.55;5.80;;;;;;;11.26;86.20;99673.78;5093291;28;20020;-66
2024/03/02 05:31:44;;;;;;;13.38;4.82;;;;;;;11.36;85.57;99673.00;5087287;28;20031;-66
2024/03/02 05:34:09;;;;;;;16.23;6.85;;;;;;;11.28;86.22;99665.31;5089670;28;20114;-66
2024/03/02 05:36:35;;;;;;;15.30;6.32;;;;;;;11.21;86.27;99670.69;5091074;28;20035;-66
2024/03/02 05:39:01;;;;;;;13.10;5.68;;;;;;;11.18;86.55;99660.69;5087973;28;20040;-66
2024/03/02 05:41:26;;;;;;;18.88;5.93;;;;;;;11.24;86.24;99678.00;5090524;28;20497;-66
2024/03/02 05:43:52;;;;;;;16.02;6.00;;;;;;;11.19;86.97;99673.00;5088864;28;20040;-66
2024/03/02 05:46:17;;;;;;;11.35;5.45;;;;;;;11.15;87.08;99672.25;5075373;28;20449;-66
2024/03/02 05:48:43;;;;;;;16.40;6.93;;;;;;;11.17;87.33;99672.63;5092152;28;20040;-66
2024/03/02 05:51:08;;;;;;;17.20;6.82;;;;;;;11.08;87.44;99667.59;5078252;28;20030;-66
2024/03/02 05:53:34;;;;;;;15.77;6.32;;;;;;;11.06;88.07;99675.28;5093992;28;20046;-66
2024/03/02 05:55:59;;;;;;;16.27;5.85;;;;;;;11.09;87.35;99671.81;5087224;28;20119;-66
2024/03/02 06:00:59;;;;;;;16.85;6.65;;;;;;;11.11;87.42;99676.84;5087968;28;20032;-66
2024/03/02 06:03:25;;;;;;;15.05;5.80;;;;;;;11.09;87.37;99676.44;5071508;28;20035;-66
2024/03/02 06:05:50;;;;;;;14.90;7.07;;;;;;;11.08;87.48;99686.44;5090726;28;20035;-67
2024/03/02 06:08:16;;;;;;;16.95;6.43;;;;;;;11.10;87.33;99686.84;5089012;28;20032;-66
2024/03/02 06:10:41;;;;;;;20.13;6.03;;;;;;;11.04;87.62;99676.81;5087005;28;20660;-66
2024/03/02 06:13:07;;;;;;;14.43;5.97;;;;;;;11.06;87.85;99674.50;5073537;28;20479;-69
2024/03/02 06:15:34;;;;;;;16.23;6.45;;;;;;;11.09;87.93;99669.13;5090941;28;20795;-66
2024/03/02 06:18:00;;;;;;;20.90;6.20;;;;;;;11.10;87.54;99675.28;5088487;28;20067;-66
2024/03/02 06:20:26;;;;;;;17.13;7.18;;;;;;;11.10;87.48;99673.38;5088297;28;20063;-66
2024/03/02 06:22:52;;;;;;;16.70;6.10;;;;;;;11.15;87.16;99677.63;5089614;28;20035;-66
2024/03/02 06:25:17;;;;;;;13.65;5.85;;;;;;;11.09;87.39;99684.53;5088407;28;20092;-66
2024/03/02 06:27:43;;;;;;;14.30;6.28;;;;;;;11.13;87.56;99690.72;5068224;28;20032;-66
2024/03/02 06:30:09;;;;;;;12.50;5.05;;;;;;;11.10;87.32;99689.53;5070144;28;20657;-66
2024/03/02 06:32:34;;;;;;;11.32;5.63;;;;;;;11.11;87.00;99684.94;5087963;28;20038;-68
2024/03/02 06:35:00;;;;;;;13.60;6.57;;;;;;;11.19;86.55;99681.09;5073087;28;20049;-66
2024/03/02 06:37:25;;;;;;;15.18;6.30;;;;;;;11.09;86.88;99687.97;5089298;28;20496;-67
2024/03/02 06:39:50;;;;;;;12.50;5.50;;;;;;;11.34;84.54;99690.75;5088224;28;20027;-68
2024/03/02 06:42:16;;;;;;;14.82;6.03;;;;;;;11.23;86.02;99698.03;5086404;28;20732;-66
2024/03/02 06:44:41;;;;;;;14.07;6.22;;;;;;;11.07;86.14;99698.38;5088328;28;20020;-66
2024/03/02 06:47:07;;;;;;;15.35;6.43;;;;;;;11.02;86.83;99703.34;5086041;28;20044;-66
2024/03/02 06:49:32;;;;;;;12.43;5.57;;;;;;;11.27;85.40;99701.50;5085841;28;20027;-68
2024/03/02 06:51:58;;;;;;;13.60;5.53;;;;;;;11.14;85.63;99695.72;5085614;28;20093;-68
2024/03/02 06:54:23;;;;;;;10.82;4.90;;;;;;;11.17;86.24;99696.88;5070935;28;20032;-68
2024/03/02 06:56:48;;;;;;;15.57;5.70;;;;;;;11.13;85.81;99691.47;5087967;28;20192;-66
2024/03/02 06:59:14;;;;;;;12.43;5.18;;;;;;;11.16;86.37;99695.31;5084799;28;20032;-67
2024/03/02 07:01:40;;;;;;;13.88;5.60;;;;;;;11.12;85.82;99694.53;5115088;27;20028;-66
2024/03/02 07:04:06;;;;;;;15.23;6.30;;;;;;;11.15;86.08;99693.78;5090883;28;20568;-66
2024/03/02 07:06:32;;;;;;;18.25;5.55;;;;;;;11.28;85.58;99697.66;5087166;28;20032;-66
2024/03/02 07:08:57;;;;;;;11.30;5.38;;;;;;;11.25;85.69;99693.03;5090261;28;20531;-66
2024/03/02 07:11:22;;;;;;;14.73;6.15;;;;;;;11.28;85.31;99698.44;5088274;28;20036;-66
2024/03/02 07:13:48;;;;;;;17.20;6.25;;;;;;;11.30;85.72;99698.06;5087448;28;20031;-68
2024/03/02 07:16:29;;;;;;;16.98;5.78;;;;;;;11.29;86.00;99694.56;5083870;28;20028;-68
2024/03/02 07:18:56;;;;;;;17.58;6.07;;;;;;;11.40;85.96;99695.34;5088559;28;20472;-69
2024/03/02 07:21:22;;;;;;;13.10;6.15;;;;;;;11.30;85.99;99698.06;5084960;28;20023;-68
2024/03/02 07:23:48;;;;;;;15.68;6.47;;;;;;;11.36;86.00;99691.88;5086339;28;20456;-68
2024/03/02 07:26:20;;;;;;;17.95;6.65;;;;;;;11.44;84.57;99695.38;5085115;28;20065;-69
2024/03/02 07:28:47;;;;;;;13.98;6.50;;;;;;;11.36;85.17;99696.53;5086570;28;20027;-68
2024/03/02 07:31:13;;;;;;;15.30;6.22;;;;;;;11.35;85.59;99700.34;5087413;28;20039;-69
2024/03/02 07:33:38;;;;;;;19.55;6.82;;;;;;;11.49;85.23;99709.25;5088724;28;20408;-66
2024/03/02 07:36:04;;;;;;;12.85;6.10;;;;;;;11.49;85.18;99719.25;5083644;28;20103;-66
2024/03/02 07:38:31;;;;;;;14.00;5.78;;;;;;;11.50;85.11;99720.78;5087240;28;20118;-66
2024/03/02 07:40:57;;;;;;;13.30;5.82;;;;;;;11.55;84.89;99720.41;5079608;28;20039;-66
2024/03/02 07:43:22;;;;;;;20.77;6.55;;;;;;;11.61;82.53;99722.34;5087400;28;20485;-66
2024/03/02 07:45:48;;;;;;;11.10;5.25;;;;;;;11.60;83.49;99736.22;5087042;28;20055;-67
2024/03/02 07:48:15;;;;;;;14.35;6.63;;;;;;;11.62;83.77;99736.59;5084275;28;20499;-66
2024/03/02 07:50:40;;;;;;;14.70;7.10;;;;;;;11.77;83.20;99738.94;5083419;28;20453;-66
2024/03/02 07:53:07;;;;;;;14.13;5.50;;;;;;;11.82;83.57;99737.81;5084850;28;20051;-66
2024/03/02 07:55:33;;;;;;;16.13;5.63;;;;;;;11.93;82.41;99745.88;5084862;28;20158;-66
2024/03/02 07:57:58;;;;;;;12.00;5.95;;;;;;;11.99;82.12;99734.34;5083906;28;20138;-66
2024/03/02 08:00:25;;;;;;;16.02;5.78;;;;;;;12.05;81.04;99746.28;5082834;28;20040;-66
2024/03/02 08:02:51;;;;;;;11.23;5.28;;;;;;;12.17;80.83;99748.59;5102215;27;20109;-68
2024/03/02 08:05:18;;;;;;;10.45;4.40;;;;;;;12.28;79.69;99749.34;5088428;28;20683;-68
2024/03/02 08:07:45;;;;;;;15.55;5.53;;;;;;;12.07;80.27;99749.38;5082354;28;20035;-66
2024/03/02 08:10:11;;;;;;;15.57;5.18;;;;;;;12.15;79.72;99744.72;5088584;28;20373;-66
2024/03/02 08:12:36;;;;;;;13.65;4.80;;;;;;;12.35;80.25;99754.72;5083092;28;20035;-66
2024/03/02 08:15:02;;;;;;;12.43;5.57;;;;;;;12.37;79.17;99755.09;5081974;28;20028;-67
2024/03/02 08:17:27;;;;;;;11.55;5.72;;;;;;;12.49;79.50;99765.50;5088274;28;20123;-68
2024/03/02 08:19:53;;;;;;;14.05;3.92;;;;;;;12.65;79.12;99762.38;5084238;28;20028;-68
2024/03/02 08:22:19;;;;;;;11.70;5.45;;;;;;;12.64;77.90;99764.31;5061895;28;20024;-68
2024/03/02 08:24:45;;;;;;;18.48;6.78;;;;;;;12.86;76.53;99778.53;5067514;28;20081;-68
2024/03/02 08:27:11;;;;;;;11.90;4.72;;;;;;;12.86;76.26;99772.34;5081720;28;20489;-68
2024/03/02 08:29:37;;;;;;;12.38;4.72;;;;;;;12.80;75.46;99779.31;5080602;28;20063;-66
2024/03/02 08:32:03;;;;;;;15.52;6.20;;;;;;;12.79;76.63;99769.66;5076974;28;20124;-68
2024/03/02 08:34:28;;;;;;;10.93;4.50;;;;;;;12.84;75.20;99774.66;5085680;28;20028;-68
2024/03/02 08:36:54;;;;;;;11.30;4.88;;;;;;;12.87;74.59;99768.50;5086863;28;20031;-68
2024/03/02 08:39:20;;;;;;;16.58;6.82;;;;;;;12.83;75.11;99779.31;5089023;28;20047;-68
2024/03/02 08:41:46;;;;;;;15.93;5.00;;;;;;;12.72;75.66;99781.25;5084643;28;20024;-68
2024/03/02 08:44:13;;;;;;;15.20;5.63;;;;;;;12.66;76.14;99789.00;5066000;28;20040;-68
2024/03/02 08:46:39;;;;;;;19.77;6.13;;;;;;;12.61;76.69;99777.81;5087624;28;20034;-68
2024/03/02 08:49:05;;;;;;;12.25;5.47;;;;;;;12.65;77.29;99781.28;5081333;28;20043;-68
2024/03/02 08:51:30;;;;;;;14.77;5.35;;;;;;;12.83;76.57;99782.03;5068849;28;20508;-68
2024/03/02 08:53:57;;;;;;;20.58;6.22;;;;;;;12.96;76.46;99783.13;5067422;28;20097;-68
2024/03/02 08:56:23;;;;;;;18.20;6.18;;;;;;;13.16;75.44;99786.16;5067803;28;20028;-68
2024/03/02 08:58:50;;;;;;;15.02;5.63;;;;;;;13.19;75.25;99779.97;5082151;28;20539;-68
2024/03/02 09:01:16;;;;;;;12.23;4.93;;;;;;;13.19;75.14;99779.97;5083103;28;20028;-68
2024/03/02 09:03:44;;;;;;;12.50;5.50;;;;;;;13.21;73.98;99796.56;5089338;28;20443;-68
2024/03/02 09:06:10;;;;;;;13.48;5.25;;;;;;;13.29;74.56;99788.03;5078001;28;20472;-68
2024/03/02 09:08:36;;;;;;;16.35;5.22;;;;;;;13.45;75.32;99784.88;5083402;28;20093;-68
2024/03/02 09:11:03;;;;;;;13.73;6.13;;;;;;;13.58;73.01;99781.31;5087093;28;20020;-68
2024/03/02 09:13:29;;;;;;;14.85;5.32;;;;;;;13.72;72.88;99785.09;5085844;28;20766;-68
2024/03/02 09:15:54;;;;;;;13.55;5.63;;;;;;;13.79;72.93;99788.50;5098804;28;20044;-68
2024/03/02 09:18:20;;;;;;;11.15;4.63;;;;;;;13.70;73.15;99782.78;5082359;28;20040;-68
2024/03/02 09:20:45;;;;;;;15.07;5.63;;;;;;;13.61;72.68;99793.25;5081939;28;20025;-68
2024/03/02 09:23:11;;;;;;;10.75;4.45;;;;;;;13.50;72.84;99793.34;5082858;28;20047;-68
2024/03/02 09:25:37;;;;;;;13.27;4.97;;;;;;;13.49;73.72;99782.91;5084014;28;20127;-68
2024/03/02 09:28:03;;;;;;;15.55;5.75;;;;;;;13.52;73.53;99791.00;5085674;28;20040;-68
2024/03/02 09:30:28;;;;;;;12.10;4.85;;;;;;;13.53;74.74;99789.03;5085134;28;20393;-67
2024/03/02 09:32:54;;;;;;;13.02;5.00;;;;;;;13.60;75.10;99783.63;5090525;28;20051;-68
2024/03/02 09:35:19;;;;;;;13.02;4.47;;;;;;;13.73;73.98;99797.44;5085479;28;20069;-68
2024/03/02 09:37:45;;;;;;;12.73;4.53;;;;;;;13.90;72.53;99793.88;5089913;28;20046;-68
2024/03/02 09:40:11;;;;;;;13.20;5.40;;;;;;;14.07;72.66;99795.66;5107270;27;20157;-68
2024/03/02 09:42:37;;;;;;;10.18;4.95;;;;;;;14.21;71.39;99801.72;5077199;28;20598;-68
2024/03/02 09:45:03;;;;;;;12.90;5.28;;;;;;;14.13;71.61;99797.53;5094180;28;20023;-68
2024/03/02 09:47:29;;;;;;;15.35;6.07;;;;;;;14.12;72.16;99806.06;5089115;28;20610;-68
2024/03/02 09:49:55;;;;;;;14.93;5.75;;;;;;;14.10;73.21;99792.13;5091293;28;20137;-68
2024/03/02 09:52:23;;;;;;;11.85;5.22;;;;;;;14.26;72.76;99785.06;5091848;28;20213;-68
2024/03/02 09:54:48;;;;;;;15.80;5.57;;;;;;;14.48;71.72;99791.81;5090325;28;20073;-68
2024/03/02 09:57:14;;;;;;;15.50;6.00;;;;;;;14.54;70.00;99788.69;5086831;28;20035;-68
2024/03/02 09:59:40;;;;;;;11.68;5.45;;;;;;;14.48;71.07;99799.94;5072383;28;20024;-68
2024/03/02 10:02:07;;;;;;;13.75;5.00;;;;;;;14.62;70.58;99800.97;5087820;28;20039;-68
2024/03/02 10:04:33;;;;;;;14.00;5.20;;;;;;;14.66;70.49;99799.78;5088072;28;20028;-68
2024/03/02 10:07:18;;;;;;;10.82;4.82;;;;;;;14.82;69.69;99802.72;5071957;28;20448;-68
2024/03/02 10:09:45;;;;;;;14.77;5.32;;;;;;;14.98;68.03;99804.88;5090389;28;20044;-68
2024/03/02 10:12:12;;;;;;;11.20;4.43;;;;;;;14.86;67.36;99802.69;5091444;28;20020;-68
2024/03/02 10:14:38;;;;;;;10.68;4.68;;;;;;;14.89;68.25;99797.22;5095424;28;20036;-68
2024/03/02 10:17:06;;;;;;;11.05;4.60;;;;;;;14.92;67.42;99795.63;5090824;28;20634;-68
2024/03/02 10:19:35;;;;;;;10.88;4.38;;;;;;;14.86;67.43;99795.31;5089361;28;20170;-68
2024/03/02 10:22:02;;;;;;;10.82;4.55;;;;;;;14.91;67.35;99794.88;5092772;28;20110;-68
2024/03/02 10:24:37;;;;;;;13.13;4.68;;;;;;;15.05;67.87;99799.34;5096757;28;20039;-68
2024/03/02 10:27:08;;;;;;;12.70;4.70;;;;;;;14.99;67.48;99798.25;5091746;28;20027;-68
2024/03/02 10:29:36;;;;;;;12.93;4.45;;;;;;;15.12;66.47;99805.47;5089408;28;20052;-68
2024/03/02 10:32:02;;;;;;;11.75;4.28;;;;;;;15.15;66.75;99801.94;5092418;28;20047;-67
2024/03/02 10:34:27;;;;;;;9.27;4.10;;;;;;;15.24;66.75;99806.88;5092470;28;20605;-68
2024/03/02 10:36:54;;;;;;;10.60;4.75;;;;;;;15.30;65.78;99805.25;5092920;28;20028;-68
2024/03/02 10:39:21;;;;;;;14.43;5.28;;;;;;;15.43;65.31;99806.25;5089593;28;20024;-68
2024/03/02 10:41:49;;;;;;;9.60;4.65;;;;;;;15.55;64.21;99811.13;5081467;28;20035;-68
2024/03/02 10:44:15;;;;;;;11.20;5.15;;;;;;;15.41;65.06;99807.84;5083438;28;20033;-67
2024/03/02 10:46:44;;;;;;;8.50;4.07;;;;;;;15.26;64.36;99794.44;5088223;28;20023;-68
2024/03/02 10:49:09;;;;;;;12.95;4.88;;;;;;;15.27;65.28;99795.97;5070694;28;20039;-68
2024/03/02 10:51:36;;;;;;;10.30;4.60;;;;;;;15.48;64.90;99799.63;5087711;28;20023;-68
2024/03/02 10:54:03;;;;;;;9.48;4.13;;;;;;;15.53;64.24;99799.94;5086906;28;20036;-68
2024/03/02 10:56:31;;;;;;;9.38;3.90;;;;;;;15.74;62.67;99807.75;5089210;28;20028;-68
2024/03/02 10:59:31;;;;;;;8.55;3.85;;;;;;;15.73;63.93;99800.81;5090114;28;20024;-68
2024/03/02 11:01:59;;;;;;;9.82;3.70;;;;;;;15.88;61.06;99799.41;5072332;28;20559;-68
2024/03/02 11:04:26;;;;;;;9.60;4.00;;;;;;;15.77;61.40;99814.34;5069276;28;20024;-68
2024/03/02 11:06:54;;;;;;;7.57;3.85;;;;;;;15.64;61.84;99814.09;5088741;28;20030;-68
2024/03/02 11:09:27;;;;;;;8.98;4.05;;;;;;;15.57;63.02;99803.34;5092428;28;20054;-68
2024/03/02 11:12:18;;;;;;;8.75;4.25;;;;;;;15.66;62.54;99809.03;5087999;28;20035;-68
2024/03/02 11:14:43;;;;;;;9.77;3.65;;;;;;;15.67;62.20;99801.66;5102830;27;20039;-68
2024/03/02 11:17:10;;;;;;;7.70;3.50;;;;;;;15.85;61.83;99815.78;5090702;28;20058;-68
2024/03/02 11:19:38;;;;;;;10.57;3.92;;;;;;;15.95;60.85;99812.88;5088395;28;20078;-68
2024/03/02 11:22:04;;;;;;;12.10;4.18;;;;;;;15.92;60.28;99808.28;5086282;28;20032;-68
2024/03/02 11:24:34;;;;;;;8.38;3.58;;;;;;;16.03;59.11;99814.31;5087032;28;20024;-67
2024/03/02 11:27:13;;;;;;;9.25;3.72;;;;;;;16.04;59.33;99815.09;5087319;28;20042;-68
2024/03/02 11:29:41;;;;;;;8.52;3.38;;;;;;;15.88;60.15;99818.44;5121280;27;20032;-68
2024/03/02 11:32:17;;;;;;;10.15;3.63;;;;;;;16.10;59.94;99822.34;5085854;28;20035;-68